WS Maaseik 1 Meer informatie WS Maaseik 1


WS Maaseik 2 Meer informatie WS Maaseik 2


Regen radar Meer informatie rain snow radar


Bezoek onze andere website:

Vorige versie
weerstation Maaseik


Bezoek ook eens deze sites:

Weerstation Geleen



Het weer levert geen direct gevaar op.    Er zijn geen waarschuwingen afgegeven.

METAR rapporten vliegvelden

   
EBBR - Brussels International Airport, Belgium
Afstand tot: W 14 km
Gewijzigd: 17-10-2021 12:20
Helder  
Helder  
   Wind: Zuiden 7.4 km/h
Wind: Zuiden 7.4 km/h
Temperatuur: 13°C
Dauwpunt: 6°C
Vochtigheid: 63%
Barometer: 1021 hPa
Zicht: meer dan 10 km
Bewolking: Helder ft
EBBR 171020Z 18004KT CAVOK 13/06 Q1021 NOSIG
EBBE - Beauvechain (Bevekom), Belgium
Afstand tot: ZZO 17 km
Gewijzigd: 17-10-2021 12:25
Grotendeels bewolkt  
Grotendeels bewolkt  
   Wind: Zuiden 5.6 km/h
Wind: Zuiden 5.6 km/h
Temperatuur: 12°C
Dauwpunt: 5°C
Vochtigheid: 63%
Barometer: 1021 hPa
Bewolking: Mostly Cloudy
Zicht: meer dan 10 km
Bewolking: Grotendeels bewolkt 20000 ft
EBBE 171025Z AUTO 19003KT 9999 BKN200/// 12/05 Q1021 BLU
EBDT - Schaffen, Belgium
Afstand tot: ONO 29 km
Gewijzigd: 17-10-2021 12:25
Grotendeels bewolkt  
Grotendeels bewolkt  
   Wind: Zuiden 9.3 km/h
Wind: Zuiden 9.3 km/h
Temperatuur: 12°C
Dauwpunt: 5°C
Vochtigheid: 63%
Barometer: 1021 hPa
Bewolking: Mostly Cloudy
Zicht: meer dan 10 km
Bewolking: Gedeeltelijk bewolkt 20000 ft,
Grotendeels bewolkt 23000 ft
EBDT 171025Z AUTO 18005KT 9999 SCT200/// BKN230/// 12/05 Q1021 BLU
EBAW - Antwerp/Deurne, Belgium
Afstand tot: NNW 38 km
Gewijzigd: 17-10-2021 12:20
Helder  
Helder  
   Wind: Zuiden 11.1 km/h
Wind: Zuiden 11.1 km/h
Temperatuur: 13°C
Dauwpunt: 6°C
Vochtigheid: 63%
Barometer: 1021 hPa
Zicht: meer dan 10 km
Bewolking: Helder ft
EBAW 171020Z 18006KT CAVOK 13/06 Q1021 NOSIG
EBCI - Charleroi/Gosselies, Belgium
Afstand tot: ZZW 51 km
Gewijzigd: 17-10-2021 12:20
Helder  
Helder  
   Wind: ZZW 11.1 km/h
Wind: ZZW 11.1 km/h
Temperatuur: 12°C
Dauwpunt: 5°C
Vochtigheid: 63%
Barometer: 1021 hPa
Zicht: meer dan 10 km
Bewolking: Helder ft
EBCI 171020Z 20006KT CAVOK 12/05 Q1021 NOSIG
EBLG - Bierset/Liege, Belgium
Afstand tot: OZO 60 km
Gewijzigd: 17-10-2021 12:20
Helder  
Helder  
   Wind: Zuiden 7.4 km/h
Wind: Zuiden 7.4 km/h
Temperatuur: 11°C
Dauwpunt: 6°C
Vochtigheid: 72%
Barometer: 1021 hPa
Zicht: meer dan 10 km
Bewolking: Helder ft
EBLG 171020Z 17004KT 150V220 CAVOK 11/06 Q1021 NOSIG

Script ontwikkeld door  Saratoga-weather.org Aangepast voor de template door  Weerstation Leuven

U vindt ons ook hier:

Het Weer Aktueel

Weather Underground

AWEKAS